createdAt,value
2023-01-19T00:01:29.609Z,45.35
2023-01-19T00:03:56.687Z,45.61
2023-01-19T00:06:23.785Z,45.54
2023-01-19T00:08:51.009Z,45.39
2023-01-19T00:11:18.801Z,45.46
2023-01-19T00:13:53.776Z,45.47
2023-01-19T00:16:25.942Z,45.91
2023-01-19T00:18:58.769Z,45.42
2023-01-19T00:21:28.969Z,45.66
2023-01-19T00:23:55.982Z,45.84
2023-01-19T00:26:22.979Z,46.22
2023-01-19T00:28:50.525Z,46.45
2023-01-19T00:31:20.875Z,46.21
2023-01-19T00:33:49.484Z,46.71
2023-01-19T00:36:16.973Z,46.32
2023-01-19T00:38:44.120Z,46.37
2023-01-19T00:41:11.317Z,46.48
2023-01-19T00:43:38.403Z,46.22
2023-01-19T00:46:05.616Z,45.82
2023-01-19T00:48:32.634Z,46.30
2023-01-19T00:51:00.196Z,46.28
2023-01-19T00:53:29.386Z,46.50
2023-01-19T00:55:56.331Z,45.70
2023-01-19T00:58:23.573Z,45.44
2023-01-19T01:00:53.075Z,45.40
2023-01-19T01:03:20.144Z,45.41
2023-01-19T01:05:47.112Z,45.54
2023-01-19T01:08:14.180Z,45.76
2023-01-19T01:10:41.057Z,45.51
2023-01-19T01:13:23.642Z,45.79
2023-01-19T01:15:53.626Z,45.29
2023-01-19T01:18:21.990Z,45.49
2023-01-19T01:20:48.976Z,45.76
2023-01-19T01:23:16.398Z,45.36
2023-01-19T01:25:43.572Z,45.49
2023-01-19T01:28:10.514Z,45.33
2023-01-19T01:30:41.251Z,45.07
2023-01-19T01:33:08.606Z,45.09
2023-01-19T01:35:35.481Z,45.14
2023-01-19T01:38:02.523Z,45.07
2023-01-19T01:40:29.819Z,45.31
2023-01-19T01:42:56.960Z,45.33
2023-01-19T01:45:31.960Z,45.38
2023-01-19T01:48:17.697Z,45.51
2023-01-19T01:51:17.723Z,46.57
2023-01-19T01:53:46.652Z,45.97
2023-01-19T01:56:20.413Z,45.78
2023-01-19T01:58:48.588Z,45.60
2023-01-19T02:01:34.191Z,45.35
2023-01-19T02:04:01.292Z,45.08
2023-01-19T02:06:28.702Z,45.37
2023-01-19T02:09:20.999Z,45.30
2023-01-19T02:12:06.312Z,45.58
2023-01-19T02:14:37.419Z,46.21
2023-01-19T02:17:04.966Z,46.39
2023-01-19T02:19:42.229Z,46.71
2023-01-19T02:22:36.177Z,47.62
2023-01-19T02:25:05.183Z,47.73
2023-01-19T02:27:33.269Z,47.13
2023-01-19T02:30:03.748Z,47.41
2023-01-19T02:32:30.856Z,47.91
2023-01-19T02:34:58.083Z,48.14
2023-01-19T02:37:28.494Z,47.93
2023-01-19T02:39:59.333Z,48.22
2023-01-19T02:42:31.823Z,48.36
2023-01-19T02:44:59.849Z,48.46
2023-01-19T02:47:26.845Z,48.56
2023-01-19T02:49:58.036Z,48.84
2023-01-19T02:52:26.977Z,48.46
2023-01-19T02:55:22.762Z,49.67
2023-01-19T02:57:55.694Z,49.15
2023-01-19T03:00:42.988Z,49.53
2023-01-19T03:03:10.623Z,48.53
2023-01-19T03:06:21.619Z,49.37
2023-01-19T03:08:56.207Z,49.15
2023-01-19T03:11:28.592Z,49.19
2023-01-19T03:14:09.036Z,49.26
2023-01-19T03:16:45.742Z,49.04
2023-01-19T03:19:27.410Z,49.08
2023-01-19T03:22:09.519Z,48.92
2023-01-19T03:24:40.559Z,47.82
2023-01-19T03:27:13.054Z,48.44
2023-01-19T03:29:43.288Z,48.17
2023-01-19T03:32:16.273Z,48.30
2023-01-19T03:34:46.913Z,48.31
2023-01-19T03:37:15.946Z,48.02
2023-01-19T03:39:43.240Z,47.85
2023-01-19T03:42:14.273Z,47.95
2023-01-19T03:44:44.233Z,47.70
2023-01-19T03:47:14.083Z,47.72
2023-01-19T03:49:44.131Z,47.84
2023-01-19T03:52:11.492Z,47.55
2023-01-19T03:54:38.576Z,47.57
2023-01-19T03:57:05.734Z,47.46
2023-01-19T03:59:32.802Z,47.38
2023-01-19T04:01:59.913Z,47.18
2023-01-19T04:04:26.941Z,47.21
2023-01-19T04:06:53.914Z,47.25
2023-01-19T04:09:20.797Z,47.04
2023-01-19T04:11:47.703Z,47.25
2023-01-19T04:14:14.594Z,47.15
2023-01-19T04:16:41.500Z,47.14
2023-01-19T04:19:08.431Z,47.33
2023-01-19T04:21:35.449Z,47.12
2023-01-19T04:24:02.419Z,46.95
2023-01-19T04:26:29.689Z,47.20
2023-01-19T04:28:56.675Z,46.90
2023-01-19T04:31:23.824Z,46.87
2023-01-19T04:33:50.774Z,46.53
2023-01-19T04:36:17.838Z,46.80
2023-01-19T04:38:46.712Z,46.66
2023-01-19T04:41:13.730Z,46.78
2023-01-19T04:43:41.005Z,46.97
2023-01-19T04:46:08.540Z,46.89
2023-01-19T04:48:35.441Z,47.06
2023-01-19T04:51:02.570Z,46.93
2023-01-19T04:53:29.684Z,46.80
2023-01-19T04:55:57.161Z,46.61
2023-01-19T04:58:24.105Z,46.48
2023-01-19T05:00:52.388Z,46.45
2023-01-19T05:03:20.588Z,46.46
2023-01-19T05:05:47.513Z,46.36
2023-01-19T05:08:14.470Z,46.47
2023-01-19T05:10:41.409Z,46.47
2023-01-19T05:13:08.356Z,46.80
2023-01-19T05:15:35.475Z,46.46
2023-01-19T05:18:02.443Z,46.59
2023-01-19T05:20:29.408Z,46.73
2023-01-19T05:23:09.210Z,46.63
2023-01-19T05:25:36.127Z,46.74
2023-01-19T05:28:03.302Z,46.81
2023-01-19T05:30:30.298Z,46.50
2023-01-19T05:32:57.238Z,46.83
2023-01-19T05:35:35.279Z,46.95
2023-01-19T05:38:03.208Z,47.11
2023-01-19T05:40:30.147Z,47.00
2023-01-19T05:43:01.314Z,46.93
2023-01-19T05:45:28.852Z,46.96
2023-01-19T05:47:55.887Z,47.28
2023-01-19T05:50:23.686Z,47.14
2023-01-19T05:52:53.296Z,46.90
2023-01-19T05:55:21.659Z,47.21
2023-01-19T05:57:48.571Z,47.23
2023-01-19T06:00:16.228Z,47.10
2023-01-19T06:02:43.747Z,47.37
2023-01-19T06:05:10.906Z,47.65
2023-01-19T06:07:37.912Z,47.82
2023-01-19T06:10:05.446Z,47.74
2023-01-19T06:12:42.335Z,47.87
2023-01-19T06:15:10.455Z,48.29
2023-01-19T06:17:37.417Z,48.10
2023-01-19T06:20:05.458Z,48.38
2023-01-19T06:22:32.632Z,48.14
2023-01-19T06:24:59.637Z,48.23
2023-01-19T06:27:26.544Z,48.28
2023-01-19T06:29:53.435Z,48.23
2023-01-19T06:32:20.472Z,48.72
2023-01-19T06:34:47.420Z,49.17
2023-01-19T06:37:17.083Z,48.88
2023-01-19T06:39:45.473Z,49.04
2023-01-19T06:42:12.349Z,49.46
2023-01-19T06:44:39.369Z,49.33
2023-01-19T06:47:14.956Z,49.05
2023-01-19T06:49:43.558Z,49.55
2023-01-19T06:52:17.607Z,49.75
2023-01-19T06:54:46.843Z,49.38
2023-01-19T06:57:14.882Z,49.72
2023-01-19T06:59:42.269Z,50.12
2023-01-19T07:02:26.471Z,50.36
2023-01-19T07:04:55.553Z,50.50
2023-01-19T07:07:22.714Z,50.31
2023-01-19T07:09:49.861Z,50.68
2023-01-19T07:12:22.724Z,50.42
2023-01-19T07:14:50.435Z,50.67
2023-01-19T07:17:17.459Z,50.91
2023-01-19T07:19:44.504Z,50.62
2023-01-19T07:22:11.428Z,50.81
2023-01-19T07:24:38.419Z,51.02
2023-01-19T07:27:05.643Z,50.27
2023-01-19T07:29:32.723Z,49.54
2023-01-19T07:32:00.037Z,48.30
2023-01-19T07:34:26.906Z,47.15
2023-01-19T07:36:54.103Z,46.10
2023-01-19T07:39:21.402Z,45.00
2023-01-19T07:41:49.064Z,43.60
2023-01-19T07:44:26.789Z,43.13
2023-01-19T07:47:00.774Z,42.30
2023-01-19T07:49:27.787Z,41.20
2023-01-19T07:51:56.572Z,40.19
2023-01-19T07:54:23.633Z,38.10
2023-01-19T07:56:55.004Z,36.07
2023-01-19T07:59:22.325Z,36.59
2023-01-19T08:01:49.478Z,35.31
2023-01-19T08:04:16.560Z,33.69
2023-01-19T08:06:45.962Z,32.54
2023-01-19T08:09:17.375Z,32.28
2023-01-19T08:11:44.726Z,32.24
2023-01-19T08:14:11.620Z,31.73
2023-01-19T08:16:38.635Z,30.76
2023-01-19T08:19:05.827Z,30.41
2023-01-19T08:21:33.507Z,29.72
2023-01-19T08:24:00.670Z,28.93
2023-01-19T08:26:33.588Z,27.64
2023-01-19T08:29:04.117Z,27.52
2023-01-19T08:31:31.545Z,27.04
2023-01-19T08:33:58.903Z,26.24
2023-01-19T08:36:26.331Z,25.79
2023-01-19T08:38:53.572Z,24.92
2023-01-19T08:41:20.634Z,24.91
2023-01-19T08:43:48.115Z,24.10
2023-01-19T08:46:17.633Z,24.43
2023-01-19T08:48:51.099Z,23.94
2023-01-19T08:51:18.453Z,23.26
2023-01-19T08:53:45.605Z,23.43
2023-01-19T08:56:13.965Z,22.60
2023-01-19T08:58:42.911Z,21.85
2023-01-19T09:01:11.166Z,22.23
2023-01-19T09:03:38.427Z,21.78
2023-01-19T09:06:08.615Z,21.91
2023-01-19T09:08:35.923Z,21.00
2023-01-19T09:11:03.385Z,20.57
2023-01-19T09:13:30.378Z,20.34
2023-01-19T09:15:57.956Z,20.68
2023-01-19T09:18:25.084Z,19.59
2023-01-19T09:20:52.025Z,20.12
2023-01-19T09:23:20.666Z,18.96
2023-01-19T09:25:48.390Z,18.67
2023-01-19T09:28:19.650Z,19.50
2023-01-19T09:30:47.140Z,20.66
2023-01-19T09:33:21.431Z,21.13
2023-01-19T09:35:49.473Z,22.50
2023-01-19T09:38:16.985Z,23.26
2023-01-19T09:41:04.720Z,24.13
2023-01-19T09:43:42.816Z,24.95
2023-01-19T09:46:21.880Z,23.58
2023-01-19T09:48:53.644Z,22.28
2023-01-19T09:51:35.155Z,20.47
2023-01-19T09:54:42.004Z,20.05
2023-01-19T09:57:12.254Z,18.85
2023-01-19T09:59:39.881Z,19.52
2023-01-19T10:02:31.112Z,19.30
2023-01-19T10:05:22.935Z,18.27
2023-01-19T10:08:09.220Z,17.79
2023-01-19T10:10:37.953Z,17.81
2023-01-19T10:13:04.737Z,18.11
2023-01-19T10:15:37.770Z,17.74
2023-01-19T10:18:19.388Z,17.79
2023-01-19T10:21:18.261Z,18.13
2023-01-19T10:23:54.753Z,16.71
2023-01-19T10:26:28.264Z,16.40
2023-01-19T10:29:01.845Z,16.87
2023-01-19T10:31:29.488Z,15.85
2023-01-19T10:33:56.539Z,15.60
2023-01-19T10:36:33.806Z,15.56
2023-01-19T10:39:00.821Z,15.87
2023-01-19T10:41:36.884Z,15.37
2023-01-19T10:44:05.995Z,15.52
2023-01-19T10:46:44.227Z,14.89
2023-01-19T10:49:36.957Z,15.24
2023-01-19T10:52:06.834Z,15.51
2023-01-19T10:54:37.069Z,15.96
2023-01-19T10:57:08.169Z,15.88
2023-01-19T10:59:38.516Z,15.47
2023-01-19T11:02:19.331Z,14.94
2023-01-19T11:04:50.142Z,14.59
2023-01-19T11:07:33.442Z,14.02
2023-01-19T11:10:28.308Z,13.66
2023-01-19T11:12:55.370Z,14.34
2023-01-19T11:15:23.534Z,14.21
2023-01-19T11:17:50.767Z,13.17
2023-01-19T11:20:26.103Z,12.69
2023-01-19T11:23:30.249Z,12.12
2023-01-19T11:26:02.487Z,13.07
2023-01-19T11:28:37.875Z,12.27
2023-01-19T11:31:10.599Z,12.33
2023-01-19T11:33:53.361Z,14.81
2023-01-19T11:36:25.545Z,16.02
2023-01-19T11:38:57.446Z,17.85
2023-01-19T11:41:34.921Z,18.65
2023-01-19T11:44:21.381Z,19.94
2023-01-19T11:46:56.828Z,21.03
2023-01-19T11:49:47.500Z,21.80
2023-01-19T11:52:34.246Z,22.67
2023-01-19T11:55:22.578Z,23.87
2023-01-19T11:57:58.099Z,24.10
2023-01-19T12:00:40.224Z,25.03
2023-01-19T12:03:15.532Z,25.79
2023-01-19T12:05:48.450Z,26.32
2023-01-19T12:08:30.137Z,27.24
2023-01-19T12:11:00.276Z,27.21
2023-01-19T12:13:27.870Z,27.48
2023-01-19T12:16:01.681Z,27.86
2023-01-19T12:18:35.825Z,28.61
2023-01-19T12:21:04.171Z,28.58
2023-01-19T12:24:13.217Z,29.68
2023-01-19T12:26:50.065Z,30.06
2023-01-19T12:29:22.668Z,29.87
2023-01-19T12:32:14.392Z,30.54
2023-01-19T12:34:52.065Z,30.62
2023-01-19T12:37:30.823Z,30.35
2023-01-19T12:40:01.166Z,30.73
2023-01-19T12:42:28.924Z,31.66
2023-01-19T12:45:14.910Z,32.76
2023-01-19T12:47:52.890Z,33.07
2023-01-19T12:50:23.586Z,32.54
2023-01-19T12:52:57.489Z,33.50
2023-01-19T12:55:31.170Z,33.16
2023-01-19T12:58:14.761Z,33.73
2023-01-19T13:00:44.158Z,33.62
2023-01-19T13:03:17.303Z,33.87
2023-01-19T13:05:44.221Z,33.32
2023-01-19T13:08:13.910Z,33.77
2023-01-19T13:11:14.314Z,33.83
2023-01-19T13:13:45.129Z,33.72
2023-01-19T13:16:30.424Z,34.33
2023-01-19T13:19:06.613Z,34.07
2023-01-19T13:21:43.626Z,34.25
2023-01-19T13:24:22.478Z,34.33
2023-01-19T13:26:49.460Z,33.98
2023-01-19T13:29:41.341Z,34.41
2023-01-19T13:32:18.788Z,34.45
2023-01-19T13:34:51.354Z,34.29
2023-01-19T13:37:30.909Z,34.41
2023-01-19T13:39:58.816Z,34.16
2023-01-19T13:42:34.374Z,34.63
2023-01-19T13:45:07.257Z,34.29
2023-01-19T13:47:42.203Z,34.88
2023-01-19T13:50:25.015Z,34.85
2023-01-19T13:52:56.256Z,34.66
2023-01-19T13:55:24.619Z,34.84
2023-01-19T13:57:51.988Z,34.73
2023-01-19T14:00:23.673Z,35.58
2023-01-19T14:03:24.123Z,35.74
2023-01-19T14:05:53.248Z,35.19
2023-01-19T14:08:21.675Z,35.31
2023-01-19T14:10:54.945Z,35.52
2023-01-19T14:13:29.537Z,35.26
2023-01-19T14:16:18.309Z,35.20
2023-01-19T14:18:45.544Z,35.37
2023-01-19T14:21:15.133Z,35.67
2023-01-19T14:23:51.575Z,35.52
2023-01-19T14:26:46.834Z,35.80
2023-01-19T14:29:34.681Z,35.68
2023-01-19T14:32:15.044Z,35.47
2023-01-19T14:34:46.127Z,35.56
2023-01-19T14:37:22.347Z,35.94
2023-01-19T14:39:56.481Z,35.99
2023-01-19T14:42:37.690Z,36.45
2023-01-19T14:45:15.711Z,36.32
2023-01-19T14:47:46.242Z,36.11
2023-01-19T14:50:24.070Z,36.55
2023-01-19T14:52:56.918Z,36.74
2023-01-19T14:55:34.194Z,36.65
2023-01-19T14:58:01.402Z,36.51
2023-01-19T15:00:28.761Z,36.55
2023-01-19T15:02:55.768Z,35.95
2023-01-19T15:05:23.292Z,36.26
2023-01-19T15:07:50.541Z,36.48
2023-01-19T15:10:23.140Z,36.52
2023-01-19T15:12:52.269Z,36.34
2023-01-19T15:15:25.956Z,36.51
2023-01-19T15:17:56.051Z,36.23
2023-01-19T15:20:23.530Z,36.51
2023-01-19T15:22:53.223Z,36.55
2023-01-19T15:25:26.214Z,36.46
2023-01-19T15:27:57.551Z,36.55
2023-01-19T15:30:28.001Z,36.66
2023-01-19T15:32:55.317Z,36.84
2023-01-19T15:35:23.820Z,36.78
2023-01-19T15:37:51.237Z,37.09
2023-01-19T15:40:19.649Z,37.33
2023-01-19T15:42:46.690Z,37.09
2023-01-19T15:45:32.416Z,37.22
2023-01-19T15:48:02.108Z,36.94
2023-01-19T15:50:29.062Z,37.18
2023-01-19T15:52:56.079Z,36.94
2023-01-19T15:55:23.236Z,36.90
2023-01-19T15:58:01.862Z,37.06
2023-01-19T16:00:30.459Z,37.31
2023-01-19T16:02:58.292Z,37.13
2023-01-19T16:05:37.464Z,36.78
2023-01-19T16:08:09.891Z,37.19
2023-01-19T16:10:36.987Z,37.26
2023-01-19T16:13:04.717Z,37.11
2023-01-19T16:15:34.261Z,36.89
2023-01-19T16:18:01.365Z,37.11
2023-01-19T16:20:31.003Z,36.74
2023-01-19T16:23:09.691Z,36.72
2023-01-19T16:25:41.128Z,36.83
2023-01-19T16:28:08.579Z,36.75
2023-01-19T16:30:35.679Z,36.60
2023-01-19T16:33:02.594Z,36.47
2023-01-19T16:35:29.636Z,36.66
2023-01-19T16:37:56.554Z,36.64
2023-01-19T16:40:23.479Z,36.93
2023-01-19T16:42:51.352Z,36.87
2023-01-19T16:45:18.799Z,36.81
2023-01-19T16:47:50.564Z,36.90
2023-01-19T16:50:18.908Z,36.78
2023-01-19T16:52:46.085Z,36.66
2023-01-19T16:55:13.129Z,36.67
2023-01-19T16:57:40.408Z,36.84
2023-01-19T17:00:10.485Z,36.50
2023-01-19T17:02:37.849Z,36.43
2023-01-19T17:05:08.533Z,36.44
2023-01-19T17:07:35.707Z,36.33
2023-01-19T17:10:02.716Z,36.55
2023-01-19T17:12:32.083Z,36.55
2023-01-19T17:14:59.315Z,36.54
2023-01-19T17:17:26.217Z,36.56
2023-01-19T17:19:53.463Z,36.45
2023-01-19T17:22:20.805Z,36.35
2023-01-19T17:24:47.908Z,36.24
2023-01-19T17:27:14.791Z,36.40
2023-01-19T17:29:41.897Z,36.70
2023-01-19T17:32:09.604Z,36.77
2023-01-19T17:34:37.664Z,36.48
2023-01-19T17:37:04.961Z,36.68
2023-01-19T17:39:31.903Z,36.70
2023-01-19T17:41:59.145Z,36.78
2023-01-19T17:44:26.326Z,36.88
2023-01-19T17:46:53.192Z,36.91
2023-01-19T17:49:20.263Z,36.93
2023-01-19T17:51:52.033Z,36.82
2023-01-19T17:54:19.584Z,37.01
2023-01-19T17:56:46.607Z,36.86
2023-01-19T17:59:13.507Z,37.14
2023-01-19T18:01:41.620Z,36.83
2023-01-19T18:04:09.155Z,36.84
2023-01-19T18:06:37.214Z,36.93
2023-01-19T18:09:06.947Z,36.66
2023-01-19T18:11:34.741Z,36.57
2023-01-19T18:14:02.277Z,36.71
2023-01-19T18:16:30.341Z,36.67
2023-01-19T18:19:01.133Z,36.47
2023-01-19T18:21:29.230Z,36.41
2023-01-19T18:24:04.343Z,36.45
2023-01-19T18:26:39.032Z,36.54
2023-01-19T18:29:06.501Z,36.36
2023-01-19T18:31:33.518Z,36.42
2023-01-19T18:34:00.645Z,36.33
2023-01-19T18:36:27.822Z,36.22
2023-01-19T18:38:55.049Z,36.41
2023-01-19T18:41:22.212Z,36.18
2023-01-19T18:43:49.539Z,36.45
2023-01-19T18:46:16.818Z,36.41
2023-01-19T18:48:44.034Z,36.47
2023-01-19T18:51:13.562Z,36.33
2023-01-19T18:53:40.896Z,36.53
2023-01-19T18:56:11.212Z,36.63
2023-01-19T18:58:39.403Z,36.96
2023-01-19T19:01:18.397Z,37.15
2023-01-19T19:03:45.655Z,37.05
2023-01-19T19:06:12.612Z,37.19
2023-01-19T19:08:49.507Z,37.21
2023-01-19T19:11:19.170Z,37.39
2023-01-19T19:13:46.333Z,37.40
2023-01-19T19:16:13.603Z,37.52
2023-01-19T19:18:40.860Z,37.90
2023-01-19T19:21:10.964Z,38.23
2023-01-19T19:23:38.556Z,38.56
2023-01-19T19:26:10.582Z,38.50
2023-01-19T19:28:38.961Z,38.57
2023-01-19T19:31:07.284Z,38.57
2023-01-19T19:33:35.200Z,38.63
2023-01-19T19:36:02.252Z,38.61
2023-01-19T19:38:29.257Z,38.66
2023-01-19T19:40:57.500Z,38.90
2023-01-19T19:43:24.994Z,39.10
2023-01-19T19:46:03.297Z,39.47
2023-01-19T19:48:30.445Z,39.38
2023-01-19T19:51:17.169Z,39.79
2023-01-19T19:53:45.635Z,39.99
2023-01-19T19:56:13.519Z,40.64
2023-01-19T19:58:42.103Z,40.81
2023-01-19T20:01:16.246Z,40.84
2023-01-19T20:03:43.576Z,41.37
2023-01-19T20:06:24.274Z,41.77
2023-01-19T20:08:53.849Z,41.62
2023-01-19T20:11:23.684Z,42.05
2023-01-19T20:13:50.981Z,42.65
2023-01-19T20:16:21.071Z,43.50
2023-01-19T20:18:51.661Z,43.09
2023-01-19T20:21:21.585Z,43.16
2023-01-19T20:23:50.911Z,43.67
2023-01-19T20:26:20.159Z,44.13
2023-01-19T20:28:47.695Z,44.54
2023-01-19T20:31:19.244Z,44.92
2023-01-19T20:33:48.347Z,45.12
2023-01-19T20:36:16.248Z,45.37
2023-01-19T20:38:43.252Z,45.94
2023-01-19T20:41:12.974Z,46.33
2023-01-19T20:43:40.707Z,46.78
2023-01-19T20:46:07.938Z,47.68
2023-01-19T20:48:54.943Z,47.17
2023-01-19T20:51:23.138Z,47.85
2023-01-19T20:53:50.307Z,48.11
2023-01-19T20:56:18.202Z,48.42
2023-01-19T20:58:45.184Z,48.65
2023-01-19T21:01:21.371Z,49.42
2023-01-19T21:03:52.810Z,48.72
2023-01-19T21:06:21.737Z,49.25
2023-01-19T21:08:52.095Z,48.82
2023-01-19T21:11:25.658Z,49.85
2023-01-19T21:13:56.345Z,49.33
2023-01-19T21:16:32.520Z,49.66
2023-01-19T21:19:00.194Z,49.79
2023-01-19T21:21:31.682Z,49.24
2023-01-19T21:24:03.759Z,49.93
2023-01-19T21:26:33.760Z,49.47
2023-01-19T21:29:01.619Z,49.25
2023-01-19T21:31:32.119Z,50.06
2023-01-19T21:34:00.021Z,49.75
2023-01-19T21:36:27.232Z,49.73
2023-01-19T21:39:01.056Z,49.78
2023-01-19T21:41:30.086Z,49.98
2023-01-19T21:43:58.653Z,49.90
2023-01-19T21:46:29.374Z,49.97
2023-01-19T21:49:02.251Z,50.80
2023-01-19T21:51:33.601Z,50.50
2023-01-19T21:54:01.903Z,50.15
2023-01-19T21:56:29.749Z,50.75
2023-01-19T21:58:57.855Z,50.59
2023-01-19T22:01:25.505Z,50.11
2023-01-19T22:03:56.873Z,50.81
2023-01-19T22:06:25.072Z,50.64
2023-01-19T22:08:52.489Z,50.71
2023-01-19T22:11:21.621Z,50.58
2023-01-19T22:13:48.757Z,50.57
2023-01-19T22:16:19.269Z,50.17
2023-01-19T22:18:51.156Z,51.04
2023-01-19T22:21:21.057Z,50.70
2023-01-19T22:23:52.004Z,50.84
2023-01-19T22:26:19.533Z,50.61
2023-01-19T22:28:46.703Z,50.69
2023-01-19T22:31:17.482Z,50.93
2023-01-19T22:33:45.250Z,50.75
2023-01-19T22:36:20.782Z,51.09
2023-01-19T22:38:56.129Z,50.56
2023-01-19T22:41:26.220Z,49.96
2023-01-19T22:43:55.835Z,50.58
2023-01-19T22:46:25.243Z,50.81
2023-01-19T22:48:52.772Z,49.93
2023-01-19T22:51:20.879Z,50.38
2023-01-19T22:53:48.352Z,50.06
2023-01-19T22:56:20.423Z,50.26
2023-01-19T22:58:49.401Z,50.48
2023-01-19T23:01:19.901Z,50.34
2023-01-19T23:03:47.181Z,50.57
2023-01-19T23:06:22.057Z,51.21
2023-01-19T23:08:50.001Z,51.11
2023-01-19T23:11:35.595Z,51.83
2023-01-19T23:14:05.177Z,52.04
2023-01-19T23:16:32.111Z,51.67
2023-01-19T23:18:59.576Z,52.13
2023-01-19T23:21:29.554Z,53.44
2023-01-19T23:24:02.093Z,53.91
2023-01-19T23:26:38.288Z,53.59
2023-01-19T23:29:12.038Z,54.01
2023-01-19T23:31:42.344Z,53.12
2023-01-19T23:34:12.357Z,53.96
2023-01-19T23:36:41.070Z,53.64
2023-01-19T23:39:16.747Z,54.32
2023-01-19T23:41:43.707Z,53.75
2023-01-19T23:44:10.730Z,53.84
2023-01-19T23:46:38.587Z,54.54
2023-01-19T23:49:05.551Z,54.20
2023-01-19T23:51:33.509Z,54.77
2023-01-19T23:54:00.717Z,54.83
2023-01-19T23:56:34.665Z,54.79
2023-01-19T23:59:05.273Z,55.05
